< < Back
Terminal Aerodrome Forecast


Current Version              Previous Versions:   1  2  3  4  5  6  7  8  9  

Terminal Aerodrome Forecast

477
FTUS42 KMLB 241700
TAFDAB
TAF
KDAB 241732Z 2418/2518 11008KT P6SM FEW040
     FM250100 VRB03KT P6SM FEW080 SCT250
     FM251400 25008KT P6SM FEW040=



Latest METAR

397
SAUS80 KWBC 250200 RRA
MTRDAB
METAR KDAB 250153Z 15005KT 10SM FEW080 24/18 A2998 RMK AO2 SLP150
T02390183


USA.gov is the U.S. government's official web portal to all federal, state and local government web resources and services.